Time;durP1;ratioP1;P1;durP2;ratioP2;P2;SDS_P1;SDS_P2;PMS_P1;PMS_P2;Temp;Humidity;BMP_temperature;BMP_pressure;BME280_temperature;BME280_humidity;BME280_pressure;Samples;Min_cycle;Max_cycle;Signal;HPM_P1;HPM_P2
2022/07/02 00:00:04;;;;;;;17.38;2.10;;;;;;;15.51;100.00;102072.34;5032751;28;20017;-71
2022/07/02 00:02:34;;;;;;;9.13;2.10;;;;;;;15.46;100.00;102071.38;5032414;28;20029;-71
2022/07/02 00:05:05;;;;;;;8.25;2.05;;;;;;;15.41;100.00;102073.97;5030770;28;20079;-71
2022/07/02 00:07:31;;;;;;;11.05;2.08;;;;;;;15.43;100.00;102072.22;5031183;28;20036;-72
2022/07/02 00:09:58;;;;;;;14.60;2.22;;;;;;;15.38;100.00;102073.91;5025763;28;20386;-71
2022/07/02 00:12:25;;;;;;;6.70;2.00;;;;;;;15.36;100.00;102066.81;5031825;28;20086;-72
2022/07/02 00:14:54;;;;;;;9.43;2.40;;;;;;;15.32;100.00;102069.38;5032213;28;20477;-71
2022/07/02 00:17:20;;;;;;;9.57;2.22;;;;;;;15.33;100.00;102071.19;5023407;28;20028;-72
2022/07/02 00:19:46;;;;;;;9.77;2.00;;;;;;;15.32;100.00;102064.09;5032135;28;20112;-72
2022/07/02 00:22:13;;;;;;;6.18;1.90;;;;;;;15.30;100.00;102070.22;5032383;28;20496;-72
2022/07/02 00:24:41;;;;;;;7.97;1.90;;;;;;;15.28;100.00;102061.38;5033043;28;20171;-71
2022/07/02 00:27:09;;;;;;;10.35;2.15;;;;;;;15.22;100.00;102071.84;5032547;28;20036;-71
2022/07/02 00:29:51;;;;;;;5.32;1.60;;;;;;;15.23;100.00;102071.88;5031964;28;20028;-72
2022/07/02 00:32:17;;;;;;;9.02;2.08;;;;;;;15.15;100.00;102066.47;5031867;28;20033;-71
2022/07/02 00:34:45;;;;;;;8.02;2.42;;;;;;;15.14;100.00;102069.09;5031126;28;20029;-71
2022/07/02 00:37:11;;;;;;;4.07;1.52;;;;;;;15.08;100.00;102074.28;5032046;28;20032;-71
2022/07/02 00:39:37;;;;;;;8.93;1.83;;;;;;;15.07;100.00;102070.75;5032538;28;20044;-72
2022/07/02 00:42:07;;;;;;;6.57;1.52;;;;;;;15.08;100.00;102061.91;5032015;28;20021;-71
2022/07/02 00:44:33;;;;;;;8.30;2.10;;;;;;;15.09;100.00;102069.00;5031447;28;20381;-72
2022/07/02 00:47:05;;;;;;;6.20;1.63;;;;;;;15.09;100.00;102069.00;5035386;28;20104;-71
2022/07/02 00:49:32;;;;;;;8.43;1.70;;;;;;;15.06;100.00;102074.25;5031711;28;20416;-72
2022/07/02 00:51:58;;;;;;;8.35;1.80;;;;;;;15.01;100.00;102070.63;5035937;28;20031;-72
2022/07/02 00:54:24;;;;;;;9.70;1.67;;;;;;;15.06;100.00;102071.59;5034526;28;20056;-71
2022/07/02 00:56:52;;;;;;;5.65;1.40;;;;;;;15.00;100.00;102071.47;5036150;28;20017;-72
2022/07/02 00:59:19;;;;;;;4.45;1.50;;;;;;;15.04;100.00;102068.03;5036056;28;20089;-72
2022/07/02 01:01:44;;;;;;;8.55;1.65;;;;;;;14.96;100.00;102069.63;5036703;28;20021;-72
2022/07/02 01:04:13;;;;;;;6.70;1.10;;;;;;;14.93;100.00;102067.81;5035229;28;20025;-72
2022/07/02 01:06:41;;;;;;;7.80;1.42;;;;;;;14.93;100.00;102064.28;5036050;28;20511;-71
2022/07/02 01:11:58;;;;;;;5.53;1.10;;;;;;;14.96;100.00;102059.03;5035725;28;20080;-71
2022/07/02 01:14:24;;;;;;;4.32;1.30;;;;;;;15.00;100.00;102058.22;5035246;28;20025;-71
2022/07/02 01:16:50;;;;;;;4.93;1.17;;;;;;;14.92;100.00;102058.13;5025477;28;20036;-71
2022/07/02 01:19:18;;;;;;;4.60;1.42;;;;;;;14.88;100.00;102060.66;5033528;28;20556;-72
2022/07/02 01:22:05;;;;;;;5.85;1.27;;;;;;;14.94;100.00;102055.47;5034748;28;20564;-72
2022/07/02 01:24:31;;;;;;;5.20;1.00;;;;;;;14.86;100.00;102054.47;5033791;28;20037;-72
2022/07/02 01:26:56;;;;;;;3.25;1.00;;;;;;;14.86;100.00;102051.81;5035890;28;20469;-72
2022/07/02 01:29:22;;;;;;;11.20;1.50;;;;;;;14.84;100.00;102050.00;5014458;28;20028;-72
2022/07/02 01:31:47;;;;;;;4.90;1.00;;;;;;;14.85;100.00;102045.59;5032852;28;20113;-72
2022/07/02 01:34:12;;;;;;;6.40;1.25;;;;;;;14.80;100.00;102050.81;5033730;28;20040;-72
2022/07/02 01:36:38;;;;;;;4.38;1.00;;;;;;;14.80;100.00;102053.47;5033091;28;20052;-70
2022/07/02 01:39:03;;;;;;;4.97;1.73;;;;;;;14.78;100.00;102060.47;5035488;28;20034;-70
2022/07/02 01:41:40;;;;;;;7.70;1.50;;;;;;;14.77;100.00;102056.06;5035223;28;20034;-72
2022/07/02 01:44:09;;;;;;;5.13;1.15;;;;;;;14.76;100.00;102059.59;5029211;28;20025;-72
2022/07/02 01:46:35;;;;;;;6.15;1.30;;;;;;;14.71;100.00;102053.28;5035494;28;20029;-72
2022/07/02 01:49:01;;;;;;;4.60;0.95;;;;;;;14.69;100.00;102060.34;5034974;28;20025;-72
2022/07/02 01:51:27;;;;;;;4.32;1.23;;;;;;;14.67;100.00;102059.41;5033339;28;20116;-70
2022/07/02 01:53:52;;;;;;;4.45;1.17;;;;;;;14.66;100.00;102061.16;5034539;28;20076;-71
2022/07/02 01:56:17;;;;;;;2.92;1.17;;;;;;;14.64;100.00;102062.00;5033863;28;20037;-72
2022/07/02 01:58:43;;;;;;;5.25;1.17;;;;;;;14.57;100.00;102060.94;5034171;28;20037;-72
2022/07/02 02:01:08;;;;;;;8.20;1.20;;;;;;;14.58;100.00;102061.84;5034077;28;20078;-72
2022/07/02 02:03:34;;;;;;;2.53;1.00;;;;;;;14.52;100.00;102061.72;5033291;28;20060;-72
2022/07/02 02:05:59;;;;;;;3.97;1.15;;;;;;;14.56;100.00;102067.09;5033698;28;20100;-71
2022/07/02 02:08:24;;;;;;;3.42;1.35;;;;;;;14.51;100.00;102058.16;5034489;28;20030;-71
2022/07/02 02:10:50;;;;;;;4.32;1.67;;;;;;;14.42;100.00;102057.97;5032502;28;20056;-72
2022/07/02 02:13:15;;;;;;;3.78;1.38;;;;;;;14.39;100.00;102065.88;5033009;28;20354;-72
2022/07/02 02:15:41;;;;;;;10.23;1.30;;;;;;;14.34;100.00;102057.84;5034404;28;20025;-72
2022/07/02 02:18:06;;;;;;;5.20;1.30;;;;;;;14.36;100.00;102058.75;5033945;28;20037;-71
2022/07/02 02:20:32;;;;;;;2.83;1.00;;;;;;;14.34;100.00;102055.19;5034956;28;20018;-71
2022/07/02 02:22:57;;;;;;;3.60;0.95;;;;;;;14.34;100.00;102049.91;5033216;28;20033;-72
2022/07/02 02:25:23;;;;;;;3.78;1.00;;;;;;;14.27;100.00;102059.47;5034615;28;20032;-72
2022/07/02 02:27:48;;;;;;;8.07;1.80;;;;;;;14.28;100.00;102050.69;5033677;28;20021;-73
2022/07/02 02:30:14;;;;;;;4.43;1.30;;;;;;;14.28;100.00;102055.06;5032749;28;20018;-72
2022/07/02 02:32:39;;;;;;;6.70;1.42;;;;;;;14.20;100.00;102056.66;5034562;28;20029;-72
2022/07/02 02:35:06;;;;;;;6.57;1.30;;;;;;;14.25;100.00;102053.25;5021414;28;20029;-72
2022/07/02 02:37:31;;;;;;;5.78;1.30;;;;;;;14.23;100.00;102059.34;5033366;28;20036;-71
2022/07/02 02:39:57;;;;;;;5.18;1.20;;;;;;;14.18;100.00;102056.63;5033183;28;20025;-71
2022/07/02 02:42:22;;;;;;;5.65;1.17;;;;;;;14.16;100.00;102056.59;5033793;28;20488;-71
2022/07/02 02:44:47;;;;;;;7.40;1.70;;;;;;;14.11;100.00;102058.25;5032103;28;20479;-70
2022/07/02 02:47:13;;;;;;;3.58;1.15;;;;;;;14.12;100.00;102060.03;5034742;28;20539;-71
2022/07/02 02:49:38;;;;;;;3.65;1.15;;;;;;;14.06;100.00;102057.25;5033642;28;20452;-71
2022/07/02 02:52:04;;;;;;;6.28;1.60;;;;;;;14.08;100.00;102060.84;5034468;28;20039;-70
2022/07/02 02:54:30;;;;;;;5.60;1.17;;;;;;;14.10;100.00;102060.88;5032873;28;20037;-72
2022/07/02 02:56:55;;;;;;;3.60;1.20;;;;;;;14.03;100.00;102056.31;5033429;28;20049;-71
2022/07/02 02:59:21;;;;;;;3.63;0.85;;;;;;;14.02;100.00;102058.03;5033761;28;20071;-71
2022/07/02 03:01:46;;;;;;;4.75;1.40;;;;;;;14.03;100.00;102057.19;5033251;28;20666;-71
2022/07/02 03:04:11;;;;;;;2.25;0.93;;;;;;;14.00;100.00;102055.38;5032824;28;20083;-71
2022/07/02 03:06:37;;;;;;;3.88;1.30;;;;;;;13.96;100.00;102056.16;5032114;28;20033;-71
2022/07/02 03:09:02;;;;;;;3.97;1.60;;;;;;;13.94;100.00;102062.28;5033327;28;20025;-73
2022/07/02 03:11:28;;;;;;;5.22;1.33;;;;;;;13.95;100.00;102064.06;5032256;28;20074;-71
2022/07/02 03:13:54;;;;;;;2.92;1.17;;;;;;;13.91;100.00;102059.56;5029532;28;20060;-72
2022/07/02 03:16:19;;;;;;;5.10;1.30;;;;;;;13.89;100.00;102058.63;5033757;28;20037;-71
2022/07/02 03:18:45;;;;;;;4.55;1.40;;;;;;;13.95;100.00;102066.72;5031141;28;20040;-71
2022/07/02 03:21:10;;;;;;;5.53;1.02;;;;;;;13.96;100.00;102064.09;5027698;28;20467;-72
2022/07/02 03:23:36;;;;;;;6.60;1.40;;;;;;;13.97;100.00;102067.63;5029254;28;20449;-72
2022/07/02 03:26:01;;;;;;;4.53;1.02;;;;;;;13.94;100.00;102068.44;5032644;28;20381;-73
2022/07/02 03:28:26;;;;;;;3.28;0.95;;;;;;;13.92;100.00;102064.88;5033401;28;20060;-71
2022/07/02 03:30:52;;;;;;;5.80;1.25;;;;;;;13.89;100.00;102070.13;5033051;28;20112;-73
2022/07/02 03:33:17;;;;;;;5.30;1.38;;;;;;;13.92;100.00;102070.19;5032163;28;20037;-70
2022/07/02 03:35:43;;;;;;;3.53;1.15;;;;;;;13.87;100.00;102070.94;5032287;28;20492;-71
2022/07/02 03:38:08;;;;;;;7.97;1.55;;;;;;;13.90;100.00;102081.59;5033471;28;20115;-71
2022/07/02 03:40:33;;;;;;;3.53;1.15;;;;;;;13.92;100.00;102086.06;5031092;28;20056;-71
2022/07/02 03:42:59;;;;;;;5.65;1.10;;;;;;;13.97;100.00;102083.50;5033748;28;20385;-72
2022/07/02 03:45:24;;;;;;;5.68;1.17;;;;;;;13.95;100.00;102086.13;5031438;28;20028;-71
2022/07/02 03:47:49;;;;;;;5.70;1.50;;;;;;;13.96;100.00;102079.09;5031710;28;20040;-72
2022/07/02 03:50:14;;;;;;;4.38;1.33;;;;;;;13.95;100.00;102077.31;5032699;28;20102;-71
2022/07/02 03:52:40;;;;;;;4.55;1.50;;;;;;;13.95;100.00;102079.94;5031236;28;20036;-72
2022/07/02 03:55:09;;;;;;;7.93;1.38;;;;;;;13.92;100.00;102088.72;5031173;28;20042;-71
2022/07/02 03:57:35;;;;;;;4.28;1.17;;;;;;;13.93;100.00;102085.22;5021681;28;20040;-73
2022/07/02 04:00:04;;;;;;;2.35;1.30;;;;;;;13.90;100.00;102087.75;5032640;28;20068;-72
2022/07/02 04:02:29;;;;;;;2.50;1.15;;;;;;;13.93;100.00;102085.22;5030239;28;20025;-72
2022/07/02 04:04:55;;;;;;;4.40;1.30;;;;;;;13.94;100.00;102088.75;5030600;28;20056;-73
2022/07/02 04:07:20;;;;;;;3.13;1.25;;;;;;;13.97;100.00;102091.44;5031034;28;20033;-72
2022/07/02 04:09:46;;;;;;;7.97;1.98;;;;;;;13.99;100.00;102087.09;5031012;28;20037;-71
2022/07/02 04:12:11;;;;;;;5.63;1.30;;;;;;;13.93;100.00;102093.16;5032558;28;20112;-71
2022/07/02 04:14:37;;;;;;;3.35;1.20;;;;;;;13.96;100.00;102092.31;5031451;28;20409;-71
2022/07/02 04:17:02;;;;;;;6.72;1.60;;;;;;;13.98;100.00;102093.25;5031908;28;20033;-73
2022/07/02 04:19:28;;;;;;;5.78;1.67;;;;;;;13.99;100.00;102092.38;5030210;28;20033;-72
2022/07/02 04:21:54;;;;;;;7.05;2.00;;;;;;;14.05;100.00;102089.84;5032392;28;20033;-72
2022/07/02 04:24:19;;;;;;;9.10;1.58;;;;;;;14.10;100.00;102096.16;5029096;28;20013;-72
2022/07/02 04:26:45;;;;;;;7.13;1.70;;;;;;;14.11;100.00;102097.06;5032228;28;20040;-73
2022/07/02 04:29:10;;;;;;;7.07;1.58;;;;;;;14.11;100.00;102095.31;5032147;28;20070;-72
2022/07/02 04:31:35;;;;;;;7.15;1.60;;;;;;;14.13;100.00;102100.63;5029850;28;20026;-73
2022/07/02 04:34:01;;;;;;;5.45;1.65;;;;;;;14.15;100.00;102094.50;5030639;28;20021;-72
2022/07/02 04:36:26;;;;;;;8.07;2.42;;;;;;;14.18;100.00;102093.69;5032209;28;20029;-72
2022/07/02 04:38:51;;;;;;;5.35;1.38;;;;;;;14.22;100.00;102099.94;5032423;28;20465;-71
2022/07/02 04:41:17;;;;;;;5.70;1.48;;;;;;;14.24;100.00;102098.22;5031902;28;20443;-72
2022/07/02 04:43:42;;;;;;;5.40;1.73;;;;;;;14.25;100.00;102095.59;5032739;28;20070;-71
2022/07/02 04:46:07;;;;;;;5.75;1.45;;;;;;;14.26;100.00;102094.75;5030131;28;20030;-71
2022/07/02 04:48:33;;;;;;;5.95;1.50;;;;;;;14.29;100.00;102096.56;5032389;28;20029;-73
2022/07/02 04:50:58;;;;;;;5.25;1.58;;;;;;;14.36;100.00;102093.19;5030915;28;20057;-71
2022/07/02 04:53:24;;;;;;;6.30;1.75;;;;;;;14.40;100.00;102094.16;5031014;28;20061;-72
2022/07/02 04:55:49;;;;;;;7.28;1.52;;;;;;;14.41;100.00;102091.53;5031579;28;20065;-72
2022/07/02 04:58:14;;;;;;;7.78;1.77;;;;;;;14.45;100.00;102097.78;5032898;28;20108;-72
2022/07/02 05:00:40;;;;;;;7.35;1.65;;;;;;;14.48;100.00;102098.72;5032283;28;20151;-71
2022/07/02 05:03:05;;;;;;;6.40;1.65;;;;;;;14.48;100.00;102098.72;5031695;28;20435;-72
2022/07/02 05:05:30;;;;;;;8.57;1.60;;;;;;;14.54;100.00;102094.41;5031529;28;20071;-72
2022/07/02 05:07:56;;;;;;;6.97;1.52;;;;;;;14.59;100.00;102085.69;5031867;28;20112;-72
2022/07/02 05:10:21;;;;;;;5.28;1.50;;;;;;;14.62;100.00;102084.88;5030816;28;20028;-72
2022/07/02 05:12:46;;;;;;;5.32;1.95;;;;;;;14.70;100.00;102093.00;5032041;28;20034;-72
2022/07/02 05:15:12;;;;;;;6.95;1.80;;;;;;;14.69;100.00;102097.44;5032321;28;20026;-72
2022/07/02 05:17:37;;;;;;;8.80;1.70;;;;;;;14.75;100.00;102097.53;5032662;28;20037;-72
2022/07/02 05:20:03;;;;;;;5.22;1.75;;;;;;;14.77;100.00;102090.53;5031841;28;20079;-73
2022/07/02 05:22:28;;;;;;;5.22;1.60;;;;;;;14.80;100.00;102090.56;5032488;28;20497;-72
2022/07/02 05:24:54;;;;;;;7.03;2.33;;;;;;;14.87;100.00;102098.63;5030754;28;20037;-72
2022/07/02 05:27:19;;;;;;;7.55;2.03;;;;;;;14.98;100.00;102102.38;5030690;28;20108;-73
2022/07/02 05:29:44;;;;;;;9.68;2.22;;;;;;;15.05;100.00;102104.28;5034588;28;20021;-72
2022/07/02 05:32:10;;;;;;;5.15;1.50;;;;;;;15.08;100.00;102109.63;5028548;28;20022;-72
2022/07/02 05:34:35;;;;;;;7.72;1.63;;;;;;;15.10;100.00;102105.25;5033284;28;20052;-71
2022/07/02 05:37:00;;;;;;;9.15;1.60;;;;;;;15.12;100.00;102100.84;5035990;28;20029;-71
2022/07/02 05:39:26;;;;;;;6.25;1.50;;;;;;;15.17;100.00;102103.63;5035386;28;20029;-72
2022/07/02 05:41:51;;;;;;;10.85;1.77;;;;;;;15.24;100.00;102104.63;5033902;28;20034;-72
2022/07/02 05:44:16;;;;;;;4.30;1.48;;;;;;;15.28;100.00;102104.69;5033841;28;20112;-72
2022/07/02 05:46:42;;;;;;;6.63;1.80;;;;;;;15.29;100.00;102101.16;5033550;28;20066;-72
2022/07/02 05:49:07;;;;;;;11.77;1.73;;;;;;;15.42;100.00;102107.56;5034517;28;20030;-72
2022/07/02 05:51:32;;;;;;;6.80;1.60;;;;;;;15.39;100.00;102096.91;5034543;28;20036;-73
2022/07/02 05:53:58;;;;;;;6.45;2.20;;;;;;;15.44;100.00;102100.53;5034255;28;20045;-71
2022/07/02 05:56:23;;;;;;;9.25;1.80;;;;;;;15.53;100.00;102094.47;5034154;28;20548;-71
2022/07/02 05:58:48;;;;;;;4.88;1.50;;;;;;;15.55;100.00;102097.19;5034086;28;20067;-72
2022/07/02 06:01:14;;;;;;;4.70;1.65;;;;;;;15.53;100.00;102107.75;5034226;28;20102;-73
2022/07/02 06:03:39;;;;;;;4.72;1.52;;;;;;;15.63;100.00;102108.81;5032065;28;20100;-71
2022/07/02 06:08:48;;;;;;;5.65;1.45;;;;;;;15.77;100.00;102099.28;5035659;28;20094;-72
2022/07/02 06:11:14;;;;;;;9.05;1.83;;;;;;;15.85;100.00;102096.78;5034501;28;20469;-70
2022/07/02 06:13:39;;;;;;;4.43;1.40;;;;;;;15.91;100.00;102103.94;5034203;28;20565;-72
2022/07/02 06:16:04;;;;;;;9.60;1.23;;;;;;;15.93;100.00;102105.75;5032790;28;20397;-72
2022/07/02 06:18:30;;;;;;;10.13;1.30;;;;;;;15.97;100.00;102109.34;5033554;28;20082;-72
2022/07/02 06:20:55;;;;;;;5.95;1.40;;;;;;;16.03;100.00;102106.75;5034469;28;20021;-71
2022/07/02 06:23:21;;;;;;;8.30;1.30;;;;;;;16.08;100.00;102109.50;5034382;28;20025;-71
2022/07/02 06:25:47;;;;;;;10.55;1.60;;;;;;;16.16;100.00;102113.16;5033961;28;20026;-70
2022/07/02 06:28:13;;;;;;;7.45;1.25;;;;;;;16.24;100.00;102115.94;5033304;28;20037;-72
2022/07/02 06:30:38;;;;;;;7.00;1.27;;;;;;;16.35;100.00;102130.22;5035005;28;20450;-71
2022/07/02 06:33:04;;;;;;;5.05;1.38;;;;;;;16.43;100.00;102133.88;5032622;28;20112;-71
2022/07/02 06:35:29;;;;;;;3.85;1.00;;;;;;;16.48;100.00;102126.88;5034443;28;20478;-71
2022/07/02 06:37:54;;;;;;;5.03;1.13;;;;;;;16.51;100.00;102136.66;5033376;28;20084;-71
2022/07/02 06:40:20;;;;;;;4.85;1.25;;;;;;;16.51;100.00;102140.19;5033197;28;20114;-72
2022/07/02 06:42:45;;;;;;;5.70;1.17;;;;;;;16.61;100.00;102137.66;5032538;28;20112;-71
2022/07/02 06:45:10;;;;;;;6.10;1.17;;;;;;;16.61;100.00;102145.63;5034437;28;20049;-71
2022/07/02 06:47:40;;;;;;;7.20;1.35;;;;;;;16.63;100.00;102135.88;5033974;28;20354;-72
2022/07/02 06:50:06;;;;;;;4.45;0.90;;;;;;;16.71;100.00;102136.00;5033820;28;20026;-71
2022/07/02 06:52:32;;;;;;;3.47;0.75;;;;;;;16.79;100.00;102134.31;5032062;28;20038;-71
2022/07/02 06:54:57;;;;;;;6.72;0.90;;;;;;;16.83;100.00;102128.16;5033694;28;20038;-71
2022/07/02 06:57:23;;;;;;;3.95;0.80;;;;;;;16.88;100.00;102130.88;5033240;28;20057;-71
2022/07/02 06:59:48;;;;;;;2.00;0.60;;;;;;;16.90;100.00;102127.41;5027582;28;20041;-70
2022/07/02 07:02:13;;;;;;;4.13;0.77;;;;;;;16.97;100.00;102126.59;5031293;28;20037;-68
2022/07/02 07:04:40;;;;;;;3.75;1.20;;;;;;;17.02;100.00;102119.56;5028642;28;20030;-70
2022/07/02 07:07:08;;;;;;;4.68;0.90;;;;;;;17.01;100.00;102111.53;5030818;28;20021;-70
2022/07/02 07:09:34;;;;;;;3.53;1.02;;;;;;;17.11;100.00;102113.41;5032925;28;20025;-70
2022/07/02 07:12:00;;;;;;;0.88;0.55;;;;;;;17.19;100.00;102109.06;5031853;28;20053;-71
2022/07/02 07:14:26;;;;;;;1.23;0.50;;;;;;;17.28;100.00;102120.66;5029300;28;20557;-70
2022/07/02 07:16:51;;;;;;;5.45;0.90;;;;;;;17.33;97.68;102124.25;5030024;28;20049;-70
2022/07/02 07:19:17;;;;;;;1.88;0.80;;;;;;;17.34;97.25;102118.06;5031433;28;20053;-70
2022/07/02 07:21:42;;;;;;;2.78;0.70;;;;;;;17.38;96.57;102122.53;5029753;28;20045;-70
2022/07/02 07:24:09;;;;;;;4.03;0.55;;;;;;;17.46;97.95;102128.81;5027180;28;20021;-72
2022/07/02 07:26:36;;;;;;;2.20;0.50;;;;;;;17.61;95.13;102121.84;5033159;28;20029;-72
2022/07/02 07:29:02;;;;;;;4.05;0.70;;;;;;;17.65;89.74;102126.31;5021539;28;20099;-71
2022/07/02 07:31:28;;;;;;;2.58;0.60;;;;;;;17.75;93.41;102128.16;5022348;28;20525;-72
2022/07/02 07:33:55;;;;;;;3.75;0.47;;;;;;;17.92;91.00;102128.31;5025310;28;20078;-71
2022/07/02 07:36:22;;;;;;;2.53;0.63;;;;;;;17.91;90.11;102118.50;5029981;28;20060;-73
2022/07/02 07:38:49;;;;;;;1.90;0.60;;;;;;;17.89;90.15;102124.69;5021533;28;20080;-73
2022/07/02 07:41:15;;;;;;;4.50;0.77;;;;;;;18.01;89.20;102125.72;5031579;28;20473;-73
2022/07/02 07:43:40;;;;;;;3.72;0.73;;;;;;;18.10;87.82;102122.19;5021816;28;20113;-73
2022/07/02 07:46:06;;;;;;;3.22;0.55;;;;;;;18.15;85.54;102117.78;5029104;28;20109;-72
2022/07/02 07:48:32;;;;;;;0.55;0.40;;;;;;;18.20;85.46;102128.47;5022073;28;20034;-73
2022/07/02 07:50:57;;;;;;;4.53;0.77;;;;;;;18.24;85.54;102119.59;5026478;28;20083;-73
2022/07/02 07:53:23;;;;;;;1.85;0.60;;;;;;;18.35;90.43;102119.66;5030769;28;20049;-73
2022/07/02 07:55:48;;;;;;;2.05;1.38;;;;;;;18.44;86.85;102117.03;5026285;28;20488;-72
2022/07/02 07:58:15;;;;;;;3.50;0.57;;;;;;;18.52;84.76;102117.97;5023348;28;20028;-73
2022/07/02 08:00:40;;;;;;;2.67;0.52;;;;;;;18.54;83.90;102107.31;5029163;28;20052;-73
2022/07/02 08:03:05;;;;;;;1.52;0.50;;;;;;;18.62;85.15;102118.00;5027624;28;20029;-73
2022/07/02 08:05:31;;;;;;;1.58;0.82;;;;;;;18.75;85.71;102119.81;5032616;28;20465;-73
2022/07/02 08:07:56;;;;;;;4.20;0.60;;;;;;;18.80;83.75;102114.50;5032305;28;20136;-73
2022/07/02 08:10:22;;;;;;;1.75;0.55;;;;;;;18.80;84.65;102111.81;5029312;28;20025;-73
2022/07/02 08:12:48;;;;;;;2.22;0.60;;;;;;;18.94;86.83;102119.91;5023398;28;20029;-73
2022/07/02 08:15:14;;;;;;;2.75;0.80;;;;;;;19.00;86.63;102114.56;5032493;28;20116;-73
2022/07/02 08:17:39;;;;;;;3.33;0.60;;;;;;;19.07;83.13;102116.34;5032719;28;20037;-73
2022/07/02 08:20:05;;;;;;;4.07;0.70;;;;;;;19.13;82.83;102111.03;5028479;28;20044;-71
2022/07/02 08:22:32;;;;;;;2.00;0.52;;;;;;;19.26;83.99;102111.06;5032167;28;20032;-72
2022/07/02 08:24:58;;;;;;;1.92;0.50;;;;;;;19.19;84.42;102115.50;5025916;28;20480;-72
2022/07/02 08:27:23;;;;;;;6.38;0.68;;;;;;;19.30;85.31;102113.75;5024831;28;20037;-73
2022/07/02 08:29:49;;;;;;;3.25;0.73;;;;;;;19.41;83.50;102115.50;5025804;28;20433;-72
2022/07/02 08:32:14;;;;;;;1.65;0.57;;;;;;;19.37;80.98;102123.53;5029108;28;20428;-73
2022/07/02 08:34:40;;;;;;;2.50;0.50;;;;;;;19.28;80.21;102122.63;5032287;28;20385;-74
2022/07/02 08:37:06;;;;;;;2.83;0.40;;;;;;;19.36;78.82;102113.72;5031424;28;20022;-75
2022/07/02 08:39:31;;;;;;;3.13;0.60;;;;;;;19.41;80.38;102116.41;5031075;28;20118;-75
2022/07/02 08:41:58;;;;;;;2.85;0.50;;;;;;;19.49;81.66;102114.63;5032347;28;20035;-75
2022/07/02 08:44:25;;;;;;;2.08;0.60;;;;;;;19.45;78.03;102112.84;5026077;28;20033;-75
2022/07/02 08:46:51;;;;;;;0.93;0.52;;;;;;;19.53;79.78;102119.09;5021259;28;20037;-73
2022/07/02 08:49:21;;;;;;;3.80;0.50;;;;;;;19.59;76.66;102109.25;5027963;28;20033;-75
2022/07/02 08:52:07;;;;;;;3.70;0.80;;;;;;;19.61;76.18;102112.84;5015991;28;20033;-73
2022/07/02 08:54:34;;;;;;;3.15;0.45;;;;;;;19.73;78.55;102115.50;5028533;28;20044;-73
2022/07/02 08:57:01;;;;;;;2.40;0.57;;;;;;;19.78;78.24;102113.72;5032388;28;20029;-72
2022/07/02 08:59:26;;;;;;;5.80;0.98;;;;;;;19.90;78.48;102119.94;5030218;28;20031;-70
2022/07/02 09:01:52;;;;;;;1.15;0.70;;;;;;;19.97;78.30;102116.41;5032974;28;20105;-73
2022/07/02 09:04:19;;;;;;;1.65;0.68;;;;;;;20.02;77.71;102107.47;5026098;28;20078;-73
2022/07/02 09:06:47;;;;;;;1.20;0.50;;;;;;;20.09;76.37;102102.09;5033154;28;20083;-73
2022/07/02 09:09:12;;;;;;;2.08;0.60;;;;;;;20.09;73.77;102104.75;5033456;28;20076;-73
2022/07/02 09:11:38;;;;;;;1.98;0.43;;;;;;;20.12;74.26;102091.41;5030896;28;20033;-73
2022/07/02 09:14:04;;;;;;;1.58;0.60;;;;;;;20.29;76.95;102102.91;5034123;28;20025;-72
2022/07/02 09:16:30;;;;;;;0.50;0.40;;;;;;;20.29;71.16;102091.34;5032553;28;20021;-73
2022/07/02 09:18:56;;;;;;;1.83;0.60;;;;;;;20.42;73.45;102095.75;5028767;28;20025;-73
2022/07/02 09:21:21;;;;;;;0.50;0.43;;;;;;;20.42;72.09;102093.06;5033745;28;20523;-72
2022/07/02 09:23:48;;;;;;;3.95;0.70;;;;;;;20.55;72.33;102085.84;5028602;28;20037;-72
2022/07/02 09:26:19;;;;;;;1.35;0.60;;;;;;;20.55;70.07;102102.81;5034341;28;20021;-73
2022/07/02 09:29:03;;;;;;;1.75;0.50;;;;;;;20.54;70.44;102102.81;5032614;28;20029;-71
2022/07/02 09:31:29;;;;;;;0.80;0.45;;;;;;;20.64;69.08;102095.63;5027424;28;20029;-73
2022/07/02 09:33:55;;;;;;;6.18;0.70;;;;;;;20.59;68.93;102094.78;5034763;28;20033;-73
2022/07/02 09:36:21;;;;;;;2.00;0.60;;;;;;;20.55;70.91;102094.78;5035935;28;20079;-74
2022/07/02 09:38:49;;;;;;;4.85;0.70;;;;;;;20.62;71.09;102086.72;5035694;28;20025;-73
2022/07/02 09:41:26;;;;;;;2.60;0.63;;;;;;;20.75;71.31;102095.63;5029394;28;20021;-75
2022/07/02 09:43:59;;;;;;;2.00;0.77;;;;;;;20.69;67.84;102096.53;5014589;28;20025;-74
2022/07/02 09:46:25;;;;;;;4.00;0.73;;;;;;;20.73;66.35;102076.91;5034574;28;20452;-73
2022/07/02 09:48:50;;;;;;;3.60;0.57;;;;;;;20.74;66.33;102078.69;5035400;28;20053;-74
2022/07/02 09:51:16;;;;;;;5.55;0.85;;;;;;;20.90;66.58;102082.13;5035914;28;20023;-74
2022/07/02 09:53:52;;;;;;;1.38;0.65;;;;;;;21.03;65.42;102069.56;5031151;28;20045;-73
2022/07/02 09:56:19;;;;;;;1.63;0.50;;;;;;;21.12;62.75;102073.94;5030038;28;20036;-72
2022/07/02 09:58:44;;;;;;;1.23;0.57;;;;;;;21.14;62.08;102082.88;5035746;28;20511;-73
2022/07/02 10:01:10;;;;;;;1.83;0.60;;;;;;;21.11;62.64;102078.44;5035786;28;20033;-73
2022/07/02 10:04:05;;;;;;;4.60;0.57;;;;;;;21.14;63.52;102078.38;5032021;28;20485;-72
2022/07/02 10:06:30;;;;;;;2.97;0.80;;;;;;;21.07;60.05;102071.31;5026431;28;20424;-73
2022/07/02 10:08:56;;;;;;;2.42;0.50;;;;;;;21.28;61.42;102080.94;5034556;28;20116;-73
2022/07/02 10:11:22;;;;;;;3.30;0.55;;;;;;;21.45;61.18;102075.47;5030885;28;20029;-72
2022/07/02 10:13:49;;;;;;;2.30;0.50;;;;;;;21.37;63.68;102070.16;5026688;28;20028;-72
2022/07/02 10:16:15;;;;;;;3.05;0.57;;;;;;;21.69;62.60;102070.78;5026537;28;20446;-72
2022/07/02 10:18:45;;;;;;;1.30;0.60;;;;;;;21.76;58.96;102077.88;5025301;28;20488;-73
2022/07/02 10:21:15;;;;;;;1.95;0.50;;;;;;;21.84;59.59;102067.06;5024154;28;20025;-73
2022/07/02 10:23:44;;;;;;;1.55;0.70;;;;;;;21.66;61.01;102066.38;5031722;28;20049;-72
2022/07/02 10:26:13;;;;;;;2.67;0.90;;;;;;;21.93;61.63;102066.09;5033363;28;20075;-72
2022/07/02 10:28:40;;;;;;;2.75;0.70;;;;;;;22.13;59.38;102077.47;5033677;28;20061;-72
2022/07/02 10:31:15;;;;;;;1.70;0.95;;;;;;;22.00;56.41;102062.41;5027329;28;20417;-71
2022/07/02 10:34:09;;;;;;;2.92;1.15;;;;;;;22.19;58.79;102076.47;5034937;28;20029;-72
2022/07/02 10:36:34;;;;;;;3.08;1.02;;;;;;;22.15;57.26;102064.94;5030870;28;20112;-72
2022/07/02 10:39:02;;;;;;;4.18;0.60;;;;;;;22.09;57.66;102056.94;5032823;28;20549;-72
2022/07/02 10:41:30;;;;;;;3.80;0.90;;;;;;;22.20;55.65;102052.34;5026602;28;20385;-71
2022/07/02 10:43:57;;;;;;;2.17;0.70;;;;;;;22.35;58.03;102051.28;5030480;28;20026;-72
2022/07/02 10:46:27;;;;;;;3.50;0.80;;;;;;;22.50;56.24;102043.94;5026246;28;20025;-73
2022/07/02 10:48:53;;;;;;;1.83;0.60;;;;;;;22.67;56.09;102051.75;5033259;28;20037;-73
2022/07/02 10:51:27;;;;;;;1.52;0.60;;;;;;;22.77;57.86;102058.75;5028682;28;20184;-72
2022/07/02 10:53:57;;;;;;;3.35;0.57;;;;;;;22.88;54.87;102054.13;5033406;28;20076;-72
2022/07/02 10:56:23;;;;;;;2.55;0.90;;;;;;;23.13;52.54;102056.44;5036159;28;20033;-73
2022/07/02 10:58:49;;;;;;;1.17;0.45;;;;;;;22.96;52.58;102059.34;5025524;28;20584;-73
2022/07/02 11:01:17;;;;;;;2.40;0.60;;;;;;;23.05;52.05;102058.34;5034025;28;20100;-73
2022/07/02 11:03:58;;;;;;;1.45;0.40;;;;;;;23.03;49.63;102041.34;5024080;28;20026;-73
2022/07/02 11:06:25;;;;;;;0.95;0.40;;;;;;;22.59;49.94;102042.94;5019533;28;20458;-73
2022/07/02 11:09:00;;;;;;;4.35;0.80;;;;;;;22.81;52.49;102038.13;5029835;28;20421;-73
2022/07/02 11:11:35;;;;;;;2.00;0.70;;;;;;;23.06;51.10;102052.94;5028249;28;20355;-72
2022/07/02 11:14:05;;;;;;;1.42;0.40;;;;;;;23.02;52.16;102048.53;5029789;28;20021;-73
2022/07/02 11:16:41;;;;;;;4.50;1.15;;;;;;;23.06;52.40;102033.22;5021038;28;20026;-72
2022/07/02 11:19:19;;;;;;;2.83;0.60;;;;;;;23.35;51.06;102043.50;5028817;28;20028;-72
2022/07/02 11:21:47;;;;;;;2.13;0.60;;;;;;;23.26;49.88;102040.13;5033216;28;20466;-72